Time;durP1;ratioP1;P1;durP2;ratioP2;P2;SDS_P1;SDS_P2;PMS_P1;PMS_P2;Temp;Humidity;BMP_temperature;BMP_pressure;BME280_temperature;BME280_humidity;BME280_pressure;Samples;Min_cycle;Max_cycle;Signal;HPM_P1;HPM_P2
2020/12/01 00:01:20;;;;;;;28.60;20.47;;;4.00;99.90;;;;;;5104096;28;20199;-55
2020/12/01 00:03:46;;;;;;;25.97;19.80;;;4.10;99.90;;;;;;5103970;28;20621;-56
2020/12/01 00:06:11;;;;;;;30.33;22.10;;;4.20;99.90;;;;;;5097043;28;20198;-54
2020/12/01 00:08:38;;;;;;;26.70;20.33;;;4.30;99.90;;;;;;5085093;28;20162;-54
2020/12/01 00:11:07;;;;;;;23.53;19.40;;;4.20;99.90;;;;;;5084400;28;20642;-53
2020/12/01 00:13:34;;;;;;;26.63;20.70;;;4.10;99.90;;;;;;5084007;28;20455;-56
2020/12/01 00:15:59;;;;;;;23.93;20.20;;;4.20;99.90;;;;;;5084310;28;20429;-55
2020/12/01 00:18:25;;;;;;;26.77;19.57;;;4.20;99.90;;;;;;5083687;28;20427;-55
2020/12/01 00:20:51;;;;;;;27.27;20.33;;;4.20;99.90;;;;;;5084823;28;20201;-53
2020/12/01 00:23:17;;;;;;;24.37;18.90;;;4.30;99.90;;;;;;5084169;28;20633;-52
2020/12/01 00:25:44;;;;;;;24.67;19.30;;;4.30;99.90;;;;;;5084821;28;20428;-54
2020/12/01 00:28:10;;;;;;;26.23;19.97;;;4.30;99.90;;;;;;5084461;28;20650;-55
2020/12/01 00:30:35;;;;;;;31.60;21.77;;;4.20;99.90;;;;;;5084000;28;20426;-54
2020/12/01 00:33:01;;;;;;;27.30;21.70;;;3.90;99.90;;;;;;5085296;28;20247;-53
2020/12/01 00:35:30;;;;;;;28.80;19.83;;;4.00;99.90;;;;;;5094485;28;20189;-54
2020/12/01 00:37:57;;;;;;;27.83;20.17;;;3.90;99.90;;;;;;5089850;28;20173;-55
2020/12/01 00:40:23;;;;;;;25.97;20.23;;;3.90;99.90;;;;;;5083349;28;20530;-59
2020/12/01 00:42:49;;;;;;;26.90;20.40;;;3.80;99.90;;;;;;5082892;28;20427;-57
2020/12/01 00:45:15;;;;;;;25.97;20.50;;;3.90;99.90;;;;;;5101709;28;20438;-58
2020/12/01 00:47:41;;;;;;;27.17;19.90;;;3.80;99.90;;;;;;5104387;28;20169;-54
2020/12/01 00:50:09;;;;;;;32.90;22.77;;;4.00;99.90;;;;;;5103914;28;20464;-54
2020/12/01 00:52:35;;;;;;;30.10;22.10;;;3.80;99.90;;;;;;5102867;28;20410;-58
2020/12/01 00:55:00;;;;;;;32.40;22.13;;;3.70;99.90;;;;;;5103155;28;20427;-56
2020/12/01 00:57:26;;;;;;;30.60;21.50;;;3.50;99.90;;;;;;5104330;28;20411;-54
2020/12/01 00:59:51;;;;;;;33.77;23.43;;;3.50;99.90;;;;;;5103400;28;20165;-56
2020/12/01 01:02:17;;;;;;;31.87;23.13;;;3.50;99.90;;;;;;5104385;28;20692;-55
2020/12/01 01:04:44;;;;;;;31.83;23.33;;;3.50;99.90;;;;;;5106886;28;20175;-58
2020/12/01 01:07:10;;;;;;;35.93;23.57;;;3.20;99.90;;;;;;5106586;28;20502;-57
2020/12/01 01:09:35;;;;;;;29.20;22.30;;;3.30;99.90;;;;;;5107149;28;20413;-58
2020/12/01 01:12:01;;;;;;;33.60;23.00;;;3.20;99.90;;;;;;5106713;28;20174;-56
2020/12/01 01:14:26;;;;;;;34.63;23.23;;;3.20;99.90;;;;;;5093310;28;20187;-58
2020/12/01 01:16:52;;;;;;;33.77;23.40;;;3.00;99.90;;;;;;5086018;28;20200;-57
2020/12/01 01:19:18;;;;;;;33.67;23.33;;;3.00;99.90;;;;;;5086138;28;20177;-56
2020/12/01 01:21:45;;;;;;;28.33;23.33;;;3.00;99.90;;;;;;5085807;28;20230;-57
2020/12/01 01:24:13;;;;;;;29.63;22.23;;;3.00;99.90;;;;;;5086538;28;20176;-57
2020/12/01 01:26:39;;;;;;;32.60;23.67;;;3.00;99.90;;;;;;5086578;28;20430;-56
2020/12/01 01:29:05;;;;;;;38.40;26.03;;;3.10;99.90;;;;;;5087074;28;20418;-55
2020/12/01 01:31:31;;;;;;;33.07;23.57;;;3.10;99.90;;;;;;5087111;28;20229;-57
2020/12/01 01:33:58;;;;;;;35.00;23.83;;;3.20;99.90;;;;;;5086732;28;20177;-56
2020/12/01 01:36:24;;;;;;;32.80;24.00;;;3.10;99.90;;;;;;5086930;28;20995;-54
2020/12/01 01:38:49;;;;;;;36.40;25.40;;;3.10;99.90;;;;;;5086496;28;20412;-55
2020/12/01 01:41:15;;;;;;;31.50;21.10;;;3.10;99.90;;;;;;5087003;28;20451;-53
2020/12/01 01:43:41;;;;;;;35.00;24.37;;;3.20;99.90;;;;;;5087534;28;20170;-57
2020/12/01 01:46:41;;;;;;;35.07;23.30;;;3.20;99.90;;;;;;5088041;28;20431;-54
2020/12/01 01:49:12;;;;;;;32.80;21.60;;;3.30;99.90;;;;;;5066196;28;20428;-54
2020/12/01 01:51:40;;;;;;;32.93;23.03;;;3.40;99.90;;;;;;5089164;28;20971;-56
2020/12/01 01:54:07;;;;;;;32.50;22.87;;;3.50;99.90;;;;;;5088371;28;20772;-53
2020/12/01 01:56:39;;;;;;;29.67;21.23;;;3.60;99.90;;;;;;5089144;28;20619;-54
2020/12/01 01:59:06;;;;;;;30.67;22.30;;;3.70;99.90;;;;;;5101505;28;20398;-55
2020/12/01 02:01:31;;;;;;;30.03;21.20;;;3.70;99.90;;;;;;5097446;28;20559;-56
2020/12/01 02:04:04;;;;;;;30.53;19.90;;;3.70;99.90;;;;;;5085642;28;20427;-55
2020/12/01 02:07:00;;;;;;;24.60;19.47;;;3.90;99.90;;;;;;5086851;28;20201;-57
2020/12/01 02:09:46;;;;;;;31.07;21.67;;;3.90;99.90;;;;;;5085606;28;20905;-58
2020/12/01 02:12:15;;;;;;;28.77;19.93;;;4.00;99.90;;;;;;5086677;28;20475;-57
2020/12/01 02:14:53;;;;;;;29.00;19.70;;;4.00;99.90;;;;;;5085607;28;20483;-56
2020/12/01 02:17:24;;;;;;;26.83;19.60;;;4.10;99.90;;;;;;5086275;28;20430;-58
2020/12/01 02:19:53;;;;;;;24.87;18.53;;;4.10;99.90;;;;;;5084596;28;20455;-53
2020/12/01 02:22:21;;;;;;;26.33;18.30;;;4.10;99.90;;;;;;5085941;28;20498;-57
2020/12/01 02:24:48;;;;;;;25.50;18.50;;;3.90;99.90;;;;;;5085513;28;20468;-57
2020/12/01 02:27:15;;;;;;;26.53;19.53;;;4.00;99.90;;;;;;5086263;28;20409;-56
2020/12/01 02:29:45;;;;;;;26.30;19.80;;;4.10;99.90;;;;;;5085324;28;20517;-57
2020/12/01 02:32:11;;;;;;;27.17;20.47;;;4.20;99.90;;;;;;5085314;28;20495;-57
2020/12/01 02:34:41;;;;;;;28.17;20.23;;;4.30;99.90;;;;;;5085209;28;20420;-56
2020/12/01 02:37:08;;;;;;;30.37;20.53;;;4.10;99.90;;;;;;5085950;28;20456;-53
2020/12/01 02:39:34;;;;;;;26.00;19.93;;;4.00;99.90;;;;;;5085635;28;20443;-56
2020/12/01 02:42:03;;;;;;;30.80;20.77;;;4.30;99.90;;;;;;5084463;28;20440;-56
2020/12/01 02:44:29;;;;;;;24.97;17.67;;;4.30;99.90;;;;;;5085057;28;20417;-58
2020/12/01 02:47:01;;;;;;;22.60;17.70;;;4.20;99.90;;;;;;5084062;28;20511;-54
2020/12/01 02:49:27;;;;;;;26.97;19.73;;;4.20;99.90;;;;;;5083982;28;20404;-58
2020/12/01 02:51:52;;;;;;;27.17;19.70;;;4.20;99.90;;;;;;5085263;28;20961;-55
2020/12/01 02:54:18;;;;;;;26.40;19.20;;;4.40;99.90;;;;;;5084641;28;20412;-54
2020/12/01 02:56:45;;;;;;;31.57;20.13;;;4.10;99.90;;;;;;5084855;28;20193;-59
2020/12/01 02:59:12;;;;;;;27.37;20.40;;;4.00;99.90;;;;;;5084394;28;20257;-55
2020/12/01 03:01:37;;;;;;;28.67;20.00;;;4.10;99.90;;;;;;5084657;28;20436;-57
2020/12/01 03:04:03;;;;;;;26.63;19.80;;;4.00;99.90;;;;;;5084508;28;20459;-58
2020/12/01 03:06:29;;;;;;;25.63;19.40;;;4.00;99.90;;;;;;5083892;28;20576;-56
2020/12/01 03:08:54;;;;;;;24.67;17.53;;;4.10;99.90;;;;;;5084262;28;20170;-58
2020/12/01 03:11:20;;;;;;;28.13;20.13;;;3.90;99.90;;;;;;5084031;28;20173;-58
2020/12/01 03:13:46;;;;;;;25.97;18.67;;;4.00;99.90;;;;;;5084237;28;20185;-58
2020/12/01 03:16:12;;;;;;;22.77;16.43;;;4.00;99.90;;;;;;5084104;28;20219;-57
2020/12/01 03:18:40;;;;;;;23.50;18.87;;;4.20;99.90;;;;;;5084009;28;20416;-57
2020/12/01 03:21:06;;;;;;;21.10;16.23;;;4.20;99.90;;;;;;5084407;28;20517;-56
2020/12/01 03:23:31;;;;;;;20.10;14.17;;;4.20;99.90;;;;;;5084591;28;20412;-55
2020/12/01 03:25:58;;;;;;;26.90;18.70;;;4.20;99.90;;;;;;5082284;28;20193;-53
2020/12/01 03:28:23;;;;;;;25.47;17.00;;;4.10;99.90;;;;;;5090923;28;20260;-56
2020/12/01 03:30:49;;;;;;;22.80;17.10;;;4.10;99.90;;;;;;5088446;28;20773;-59
2020/12/01 03:33:15;;;;;;;23.77;17.03;;;4.00;99.90;;;;;;5083428;28;20174;-54
2020/12/01 03:35:41;;;;;;;23.83;17.57;;;4.00;99.90;;;;;;5083831;28;20186;-59
2020/12/01 03:38:07;;;;;;;20.73;15.17;;;4.00;99.90;;;;;;5082927;28;20424;-54
2020/12/01 03:40:32;;;;;;;22.60;15.83;;;4.10;99.90;;;;;;5084013;28;20199;-54
2020/12/01 03:42:58;;;;;;;26.83;17.13;;;4.00;99.90;;;;;;5083878;28;20241;-56
2020/12/01 03:45:24;;;;;;;26.60;17.90;;;4.00;99.90;;;;;;5083745;28;20191;-58
2020/12/01 03:47:53;;;;;;;24.43;16.30;;;3.90;99.90;;;;;;5082691;28;20197;-58
2020/12/01 03:50:19;;;;;;;22.50;17.13;;;3.90;99.90;;;;;;5082212;28;20423;-58
2020/12/01 03:52:44;;;;;;;26.43;18.77;;;3.90;99.90;;;;;;5082401;28;20428;-57
2020/12/01 03:55:10;;;;;;;27.77;16.97;;;3.80;99.90;;;;;;5082786;28;20262;-58
2020/12/01 03:57:41;;;;;;;26.17;17.87;;;3.70;99.90;;;;;;5083652;28;20172;-57
2020/12/01 04:00:09;;;;;;;25.17;17.67;;;3.80;99.90;;;;;;5083398;28;20154;-56
2020/12/01 04:02:34;;;;;;;23.67;18.20;;;3.90;99.90;;;;;;5082542;28;20439;-56
2020/12/01 04:05:00;;;;;;;25.77;18.50;;;4.00;99.90;;;;;;5086045;28;20434;-57
2020/12/01 04:07:26;;;;;;;29.07;18.00;;;4.10;99.90;;;;;;5100115;28;20534;-58
2020/12/01 04:09:51;;;;;;;23.43;16.50;;;4.00;99.90;;;;;;5082650;28;20170;-59
2020/12/01 04:12:17;;;;;;;30.07;20.90;;;4.00;99.90;;;;;;5083229;28;20173;-57
2020/12/01 04:14:42;;;;;;;23.13;16.50;;;4.10;99.90;;;;;;5082913;28;20177;-59
2020/12/01 04:17:08;;;;;;;25.33;17.07;;;4.10;99.90;;;;;;5083402;28;20190;-59
2020/12/01 04:19:33;;;;;;;25.20;18.50;;;4.10;99.90;;;;;;5083396;28;20196;-57
2020/12/01 04:21:59;;;;;;;25.43;16.23;;;4.20;99.90;;;;;;5081982;28;20280;-59
2020/12/01 04:24:24;;;;;;;24.37;17.20;;;4.20;99.90;;;;;;5084101;28;20158;-58
2020/12/01 04:26:50;;;;;;;25.77;16.50;;;4.20;99.90;;;;;;5083234;28;20189;-57
2020/12/01 04:29:16;;;;;;;28.03;16.77;;;4.30;99.90;;;;;;5082740;28;20173;-58
2020/12/01 04:31:41;;;;;;;21.60;16.47;;;4.20;99.90;;;;;;5083451;28;20173;-58
2020/12/01 04:34:07;;;;;;;22.47;16.73;;;4.20;99.90;;;;;;5083164;28;20165;-58
2020/12/01 04:36:32;;;;;;;21.50;15.67;;;4.40;99.90;;;;;;5083392;28;20201;-57
2020/12/01 04:38:58;;;;;;;25.67;17.63;;;4.30;99.90;;;;;;5086432;28;20170;-58
2020/12/01 04:41:25;;;;;;;26.97;18.53;;;4.40;99.90;;;;;;5087232;28;20202;-56
2020/12/01 04:43:57;;;;;;;26.07;17.50;;;4.30;99.90;;;;;;5087090;28;20538;-58
2020/12/01 04:46:26;;;;;;;19.97;13.63;;;4.30;99.90;;;;;;5086854;28;20947;-57
2020/12/01 04:48:57;;;;;;;21.70;15.90;;;4.30;99.90;;;;;;5087044;28;20419;-58
2020/12/01 04:51:49;;;;;;;24.00;16.50;;;4.40;99.90;;;;;;5087918;28;20392;-58
2020/12/01 04:54:32;;;;;;;20.13;14.23;;;4.40;99.90;;;;;;5086132;28;20423;-58
2020/12/01 04:57:01;;;;;;;21.93;16.73;;;4.40;99.90;;;;;;5086129;28;20827;-58
2020/12/01 04:59:36;;;;;;;23.40;17.50;;;4.40;99.90;;;;;;5086642;28;20408;-57
2020/12/01 05:02:29;;;;;;;20.93;15.00;;;4.50;99.90;;;;;;5085909;28;20450;-57
2020/12/01 05:05:15;;;;;;;21.50;14.97;;;4.70;99.90;;;;;;5086039;28;20768;-57
2020/12/01 05:08:35;;;;;;;18.00;13.20;;;4.80;99.90;;;;;;5086658;28;20380;-54
2020/12/01 05:11:24;;;;;;;16.70;13.17;;;4.70;99.90;;;;;;5024100;28;20488;-53
2020/12/01 05:14:10;;;;;;;18.20;13.73;;;4.70;99.90;;;;;;5085477;28;20773;-54
2020/12/01 05:17:05;;;;;;;15.93;11.67;;;4.60;99.90;;;;;;5087168;28;20446;-55
2020/12/01 05:19:43;;;;;;;17.77;13.50;;;4.70;99.90;;;;;;5084273;28;20510;-54
2020/12/01 05:22:11;;;;;;;16.10;12.17;;;4.80;99.90;;;;;;5086083;28;20474;-56
2020/12/01 05:24:39;;;;;;;18.67;13.27;;;4.70;99.90;;;;;;5086073;28;20411;-56
2020/12/01 05:27:05;;;;;;;16.37;12.80;;;4.80;99.90;;;;;;5086106;28;20447;-56
2020/12/01 05:29:30;;;;;;;20.27;14.73;;;4.90;99.90;;;;;;5086137;28;20458;-58
2020/12/01 05:31:56;;;;;;;18.30;13.53;;;5.00;99.90;;;;;;5085812;28;20826;-54
2020/12/01 05:34:22;;;;;;;20.07;15.80;;;5.10;99.90;;;;;;5086077;28;20528;-58
2020/12/01 05:36:48;;;;;;;23.93;16.30;;;5.00;99.90;;;;;;5085609;28;20182;-55
2020/12/01 05:39:18;;;;;;;17.67;12.87;;;5.20;99.90;;;;;;5084290;28;20170;-57
2020/12/01 05:42:06;;;;;;;20.60;15.90;;;5.20;99.90;;;;;;5085110;28;20447;-53
2020/12/01 05:44:33;;;;;;;18.93;13.90;;;5.20;99.90;;;;;;5084885;28;20396;-56
2020/12/01 05:47:08;;;;;;;25.60;17.90;;;5.20;99.90;;;;;;5085347;28;20421;-57
2020/12/01 05:49:42;;;;;;;24.10;18.27;;;5.10;99.90;;;;;;5083445;28;20388;-57
2020/12/01 05:52:28;;;;;;;21.67;15.00;;;4.90;99.90;;;;;;5082102;28;20465;-58
2020/12/01 05:55:12;;;;;;;19.80;14.30;;;5.00;99.90;;;;;;5084375;28;20404;-55
2020/12/01 05:57:38;;;;;;;20.07;14.63;;;5.00;99.90;;;;;;5082948;28;20400;-57
2020/12/01 06:00:14;;;;;;;21.77;16.20;;;4.90;99.90;;;;;;5083364;28;20461;-57
2020/12/01 06:03:17;;;;;;;28.90;18.37;;;5.10;99.90;;;;;;5084004;28;20187;-58
2020/12/01 06:05:46;;;;;;;26.43;18.97;;;4.90;99.90;;;;;;5094518;28;20415;-58
2020/12/01 06:08:30;;;;;;;23.40;16.27;;;4.80;99.90;;;;;;5103778;28;21114;-57
2020/12/01 06:11:30;;;;;;;21.70;15.57;;;4.80;99.90;;;;;;5103836;28;20414;-58
2020/12/01 06:14:02;;;;;;;22.83;16.67;;;4.90;99.90;;;;;;5096427;28;20420;-58
2020/12/01 06:16:39;;;;;;;38.57;22.80;;;4.90;99.90;;;;;;5083779;28;20431;-58
2020/12/01 06:19:26;;;;;;;21.17;15.60;;;5.00;99.90;;;;;;5083015;28;20410;-58
2020/12/01 06:22:09;;;;;;;25.63;17.77;;;5.00;99.90;;;;;;5089665;28;20987;-58
2020/12/01 06:25:02;;;;;;;21.97;15.97;;;5.00;99.90;;;;;;5103680;28;20396;-55
2020/12/01 06:27:52;;;;;;;24.33;16.40;;;4.90;99.90;;;;;;5103836;28;20383;-57
2020/12/01 06:30:59;;;;;;;27.37;19.50;;;4.90;99.90;;;;;;5102200;28;20409;-54
2020/12/01 06:33:43;;;;;;;24.50;16.57;;;4.80;99.90;;;;;;5076646;28;20415;-57
2020/12/01 06:36:34;;;;;;;21.27;16.00;;;4.80;99.90;;;;;;5104464;28;20423;-58
2020/12/01 06:39:20;;;;;;;22.50;16.30;;;5.00;99.90;;;;;;5104968;28;20431;-58
2020/12/01 06:41:54;;;;;;;25.93;17.87;;;5.00;99.90;;;;;;5106341;28;20492;-58
2020/12/01 06:44:24;;;;;;;25.77;16.20;;;4.80;99.90;;;;;;5094519;28;20507;-56
2020/12/01 06:46:53;;;;;;;21.50;18.27;;;4.80;99.90;;;;;;5086831;28;20488;-56
2020/12/01 06:49:27;;;;;;;22.90;17.70;;;4.80;99.90;;;;;;5083236;28;20397;-56
2020/12/01 06:51:56;;;;;;;23.57;16.17;;;4.90;99.90;;;;;;5085174;28;20400;-56
2020/12/01 06:54:22;;;;;;;23.23;16.70;;;4.90;99.90;;;;;;5084872;28;20409;-54
2020/12/01 06:56:59;;;;;;;23.60;16.30;;;4.80;99.90;;;;;;5085131;28;20447;-59
2020/12/01 06:59:25;;;;;;;29.73;18.00;;;4.80;99.90;;;;;;5084766;28;20408;-58
2020/12/01 07:01:51;;;;;;;22.97;17.30;;;4.70;99.90;;;;;;5084327;28;20440;-59
2020/12/01 07:04:24;;;;;;;22.43;16.70;;;4.60;99.90;;;;;;5084462;28;20418;-59
2020/12/01 07:07:02;;;;;;;25.40;17.33;;;4.60;99.90;;;;;;5084956;28;20427;-59
2020/12/01 07:09:45;;;;;;;21.30;15.13;;;4.60;99.90;;;;;;5082222;28;20404;-58
2020/12/01 07:12:15;;;;;;;24.33;17.90;;;4.70;99.90;;;;;;5082568;28;20418;-57
2020/12/01 07:14:43;;;;;;;22.97;16.77;;;4.80;99.90;;;;;;5080803;28;20420;-58
2020/12/01 07:17:20;;;;;;;32.17;24.07;;;4.90;99.90;;;;;;5083337;28;20848;-58
2020/12/01 07:20:16;;;;;;;25.13;18.00;;;4.90;99.90;;;;;;5082107;28;20760;-58
2020/12/01 07:22:50;;;;;;;22.67;18.00;;;4.90;99.90;;;;;;5082081;28;20416;-59
2020/12/01 07:25:32;;;;;;;20.80;16.83;;;4.90;99.90;;;;;;5081879;28;20545;-55
2020/12/01 07:28:24;;;;;;;21.30;16.20;;;4.90;99.90;;;;;;5079714;28;20424;-55
2020/12/01 07:30:57;;;;;;;21.43;14.97;;;5.00;99.90;;;;;;5075883;28;20432;-57
2020/12/01 07:33:28;;;;;;;20.40;15.13;;;4.90;99.90;;;;;;5080967;28;20825;-58
2020/12/01 07:36:10;;;;;;;22.47;16.37;;;4.80;99.90;;;;;;5082814;28;20420;-58
2020/12/01 07:38:43;;;;;;;21.33;15.03;;;4.80;99.90;;;;;;5083169;28;20421;-57
2020/12/01 07:41:24;;;;;;;18.63;13.50;;;5.00;99.90;;;;;;5082035;28;20451;-57
2020/12/01 07:44:03;;;;;;;18.07;13.50;;;5.00;99.90;;;;;;5082496;28;20393;-58
2020/12/01 07:46:29;;;;;;;25.33;14.57;;;5.10;99.90;;;;;;5080881;28;20424;-58
2020/12/01 07:48:59;;;;;;;21.27;15.33;;;5.10;99.90;;;;;;5080522;28;20775;-57
2020/12/01 07:51:28;;;;;;;18.80;13.30;;;5.20;99.90;;;;;;5077962;28;20538;-57
2020/12/01 07:53:53;;;;;;;19.33;14.23;;;5.20;99.90;;;;;;5076979;28;20565;-56
2020/12/01 07:56:22;;;;;;;16.80;13.27;;;5.20;99.90;;;;;;5075865;28;20947;-60
2020/12/01 07:59:09;;;;;;;18.73;13.87;;;5.20;99.90;;;;;;5076940;28;20181;-58
2020/12/01 08:01:35;;;;;;;23.87;15.87;;;5.30;99.90;;;;;;5087459;28;20447;-59
2020/12/01 08:04:20;;;;;;;19.23;14.53;;;5.20;99.90;;;;;;5097150;28;20499;-58
2020/12/01 08:07:02;;;;;;;18.40;13.93;;;5.20;99.90;;;;;;5097144;28;20272;-57
2020/12/01 08:09:28;;;;;;;26.20;18.60;;;5.10;99.90;;;;;;5096166;28;20380;-56
2020/12/01 08:11:59;;;;;;;26.70;17.63;;;5.10;99.90;;;;;;5096140;28;20407;-56
2020/12/01 08:14:25;;;;;;;23.40;16.33;;;5.10;99.90;;;;;;5088856;28;20425;-55
2020/12/01 08:17:06;;;;;;;19.37;15.17;;;5.30;99.90;;;;;;5076981;28;20435;-56
2020/12/01 08:19:33;;;;;;;21.00;15.87;;;5.50;99.90;;;;;;5076137;28;20185;-57
2020/12/01 08:22:00;;;;;;;16.30;12.03;;;5.50;99.90;;;;;;5077270;28;20491;-58
2020/12/01 08:24:30;;;;;;;19.57;14.20;;;5.50;99.90;;;;;;5076902;28;20424;-54
2020/12/01 08:27:11;;;;;;;20.87;15.70;;;5.50;99.90;;;;;;5077527;28;20804;-55
2020/12/01 08:29:39;;;;;;;21.73;14.83;;;5.40;99.90;;;;;;5075881;28;20406;-55
2020/12/01 08:32:18;;;;;;;22.27;13.83;;;5.40;99.90;;;;;;5077123;28;20396;-57
2020/12/01 08:34:50;;;;;;;18.20;13.90;;;5.30;99.90;;;;;;5075208;28;20396;-58
2020/12/01 08:37:46;;;;;;;14.30;11.67;;;5.20;99.90;;;;;;5076168;28;20499;-55
2020/12/01 08:40:25;;;;;;;16.30;12.10;;;5.10;99.90;;;;;;5075641;28;20424;-57
2020/12/01 08:43:12;;;;;;;16.03;12.43;;;5.00;99.90;;;;;;5076738;28;20422;-57
2020/12/01 08:45:43;;;;;;;15.17;11.33;;;5.00;99.90;;;;;;5074658;28;20416;-58
2020/12/01 08:48:21;;;;;;;16.47;11.67;;;5.10;99.90;;;;;;5077373;28;20411;-57
2020/12/01 08:50:47;;;;;;;14.50;11.80;;;5.20;99.90;;;;;;5076237;28;20389;-57
2020/12/01 08:53:19;;;;;;;16.30;12.37;;;5.30;99.90;;;;;;5076906;28;20512;-57
2020/12/01 08:55:51;;;;;;;16.83;12.23;;;5.00;99.90;;;;;;5076121;28;20182;-57
2020/12/01 08:58:42;;;;;;;19.17;14.00;;;4.70;99.90;;;;;;5075678;28;20388;-57
2020/12/01 09:01:11;;;;;;;15.73;12.20;;;4.80;99.90;;;;;;5074926;28;20843;-54
2020/12/01 09:03:38;;;;;;;19.27;13.00;;;4.80;99.90;;;;;;5076073;28;20404;-58
2020/12/01 09:06:21;;;;;;;13.73;11.40;;;4.90;99.90;;;;;;5075508;28;20526;-57
2020/12/01 09:09:02;;;;;;;18.63;13.57;;;5.00;99.90;;;;;;5076812;28;20408;-57
2020/12/01 09:11:47;;;;;;;21.33;13.73;;;5.00;99.90;;;;;;5077103;28;20392;-58
2020/12/01 09:17:28;;;;;;;17.20;12.60;;;5.00;99.90;;;;;;5032765;28;20402;-56
2020/12/01 09:20:57;;;;;;;17.40;11.03;;;4.90;99.90;;;;;;5071421;28;20511;-57
2020/12/01 09:23:32;;;;;;;19.53;13.13;;;5.00;99.90;;;;;;5069321;28;20422;-57
2020/12/01 09:25:58;;;;;;;17.17;12.37;;;5.10;99.90;;;;;;5076956;28;20569;-56
2020/12/01 09:28:28;;;;;;;15.80;12.53;;;5.00;99.90;;;;;;5079217;28;20389;-57
2020/12/01 09:30:58;;;;;;;13.30;9.93;;;5.00;99.90;;;;;;5079214;28;20789;-57
2020/12/01 09:33:24;;;;;;;16.60;11.90;;;5.00;99.90;;;;;;5079565;28;20457;-57
2020/12/01 09:35:50;;;;;;;16.53;12.50;;;4.90;99.90;;;;;;5077040;28;20428;-56
2020/12/01 09:38:17;;;;;;;15.20;11.53;;;4.90;99.90;;;;;;5079494;28;20572;-55
2020/12/01 09:40:45;;;;;;;13.80;11.60;;;5.00;99.90;;;;;;5079515;28;20447;-58
2020/12/01 09:45:59;;;;;;;12.40;10.30;;;5.10;99.90;;;;;;5079438;28;20431;-58
2020/12/01 09:48:32;;;;;;;10.60;9.37;;;5.20;99.90;;;;;;5079782;28;20401;-58
2020/12/01 09:50:58;;;;;;;13.67;9.70;;;5.10;99.90;;;;;;5080615;28;20395;-58
2020/12/01 09:53:36;;;;;;;14.00;10.07;;;5.20;99.90;;;;;;5079664;28;20459;-58
2020/12/01 09:56:26;;;;;;;13.73;10.93;;;5.40;99.90;;;;;;5081355;28;20432;-59
2020/12/01 10:09:29;;;;;;;14.10;10.50;;;5.70;99.90;;;;;;5080171;28;20437;-58
2020/12/01 10:36:39;;;;;;;14.17;9.93;;;5.20;99.90;;;;;;5077562;28;20427;-57
2020/12/01 10:39:06;;;;;;;11.67;9.57;;;5.30;99.90;;;;;;5077925;28;20431;-57
2020/12/01 10:41:33;;;;;;;9.90;8.77;;;5.50;99.90;;;;;;5079835;28;20485;-58
2020/12/01 10:43:59;;;;;;;11.50;9.00;;;5.60;99.90;;;;;;5080093;28;20439;-57
2020/12/01 10:46:25;;;;;;;9.33;8.40;;;5.50;99.90;;;;;;5077758;28;20435;-56
2020/12/01 10:48:51;;;;;;;12.43;9.50;;;5.60;99.90;;;;;;5079756;28;20397;-58
2020/12/01 10:51:17;;;;;;;12.97;9.30;;;5.60;99.90;;;;;;5078625;28;21021;-58
2020/12/01 10:53:42;;;;;;;13.33;9.40;;;5.70;99.90;;;;;;5080807;28;20181;-57
2020/12/01 10:56:08;;;;;;;12.50;9.43;;;5.70;99.90;;;;;;5079830;28;20189;-58
2020/12/01 10:58:33;;;;;;;12.10;10.60;;;5.60;99.90;;;;;;5078739;28;20163;-58
2020/12/01 11:01:01;;;;;;;17.33;13.57;;;5.60;99.90;;;;;;5077990;28;20194;-53
2020/12/01 11:03:26;;;;;;;16.20;11.40;;;5.70;99.90;;;;;;5078804;28;20541;-56
2020/12/01 11:05:52;;;;;;;13.63;11.23;;;5.60;99.90;;;;;;5077869;28;20507;-58
2020/12/01 11:08:18;;;;;;;15.13;12.20;;;5.70;99.90;;;;;;5077657;28;20166;-57
2020/12/01 11:10:43;;;;;;;12.90;11.20;;;5.80;99.90;;;;;;5078646;28;20174;-57
2020/12/01 11:13:09;;;;;;;14.50;11.63;;;5.90;99.90;;;;;;5078982;28;20181;-57
2020/12/01 11:15:35;;;;;;;7.67;6.90;;;5.90;99.90;;;;;;5078783;28;20186;-57
2020/12/01 11:18:01;;;;;;;11.67;8.70;;;5.50;99.90;;;;;;5079160;28;20184;-55
2020/12/01 11:20:26;;;;;;;9.87;8.30;;;5.60;99.90;;;;;;5077395;28;20471;-56
2020/12/01 11:22:52;;;;;;;10.77;8.10;;;5.70;99.90;;;;;;5078908;28;20193;-56
2020/12/01 11:25:19;;;;;;;8.63;7.33;;;5.90;99.90;;;;;;5078746;28;20186;-57
2020/12/01 11:27:45;;;;;;;11.03;7.80;;;5.90;99.90;;;;;;5077971;28;20170;-57
2020/12/01 11:30:11;;;;;;;8.40;6.90;;;5.80;99.90;;;;;;5076097;28;20968;-57
2020/12/01 11:32:37;;;;;;;8.77;7.93;;;5.90;99.90;;;;;;5078843;28;20174;-58
2020/12/01 11:35:03;;;;;;;11.10;8.37;;;5.90;99.90;;;;;;5078833;28;20764;-57
2020/12/01 11:37:29;;;;;;;9.27;6.33;;;5.90;99.90;;;;;;5076305;28;20170;-58
2020/12/01 11:39:54;;;;;;;7.40;6.70;;;5.90;99.90;;;;;;5078767;28;20408;-57
2020/12/01 11:42:23;;;;;;;8.03;7.23;;;5.90;99.90;;;;;;5078493;28;20243;-58
2020/12/01 11:44:49;;;;;;;7.70;6.90;;;5.80;99.90;;;;;;5077885;28;20190;-55
2020/12/01 11:47:14;;;;;;;11.30;8.87;;;5.70;99.90;;;;;;5077199;28;20411;-54
2020/12/01 11:49:40;;;;;;;9.30;6.90;;;5.70;99.90;;;;;;5077715;28;20228;-56
2020/12/01 11:52:05;;;;;;;7.30;6.60;;;5.80;99.90;;;;;;5076741;28;20181;-58
2020/12/01 11:54:31;;;;;;;9.67;8.67;;;5.80;99.90;;;;;;5077635;28;20284;-57
2020/12/01 11:56:57;;;;;;;7.00;5.90;;;5.90;99.90;;;;;;5093869;28;20185;-56
2020/12/01 11:59:22;;;;;;;6.70;5.73;;;5.90;99.90;;;;;;5098279;28;20625;-58
2020/12/01 12:01:48;;;;;;;8.50;7.03;;;5.70;99.90;;;;;;5097826;28;20196;-58
2020/12/01 12:04:14;;;;;;;7.53;6.83;;;5.60;99.90;;;;;;5096736;28;20193;-56
2020/12/01 12:06:40;;;;;;;7.40;6.70;;;5.60;99.90;;;;;;5091644;28;20451;-57
2020/12/01 12:09:11;;;;;;;8.00;7.27;;;5.60;99.90;;;;;;5091960;28;20429;-58
2020/12/01 12:11:37;;;;;;;9.80;8.77;;;5.60;99.90;;;;;;5098636;28;20157;-57
2020/12/01 12:14:03;;;;;;;9.63;8.20;;;5.70;99.90;;;;;;5094212;28;20411;-56
2020/12/01 12:16:29;;;;;;;7.13;6.43;;;5.90;99.90;;;;;;5078827;28;20420;-58
2020/12/01 12:18:55;;;;;;;7.30;6.57;;;6.00;99.90;;;;;;5077868;28;20408;-59
2020/12/01 12:21:20;;;;;;;8.80;7.93;;;6.10;99.90;;;;;;5078146;28;20204;-58
2020/12/01 12:23:47;;;;;;;10.90;9.80;;;6.20;99.90;;;;;;5077719;28;20180;-55
2020/12/01 12:26:13;;;;;;;10.00;8.97;;;6.20;99.90;;;;;;5077591;28;20198;-58
2020/12/01 12:28:39;;;;;;;8.70;7.60;;;6.30;99.90;;;;;;5077922;28;20462;-59
2020/12/01 12:31:06;;;;;;;11.40;10.03;;;6.20;99.90;;;;;;5078791;28;20405;-58
2020/12/01 12:33:32;;;;;;;8.53;7.70;;;6.20;99.90;;;;;;5078712;28;20162;-59
2020/12/01 12:35:58;;;;;;;8.40;7.60;;;6.20;99.90;;;;;;5077155;28;20539;-58
2020/12/01 12:38:25;;;;;;;10.63;9.10;;;6.20;99.90;;;;;;5076446;28;20304;-58
2020/12/01 12:40:51;;;;;;;11.83;10.57;;;6.10;99.90;;;;;;5076917;28;20519;-57
2020/12/01 12:43:18;;;;;;;10.60;9.50;;;6.20;99.90;;;;;;5077777;28;20440;-59
2020/12/01 12:45:44;;;;;;;10.53;9.13;;;6.20;99.90;;;;;;5078230;28;20182;-58
2020/12/01 12:48:10;;;;;;;11.00;9.57;;;6.10;99.90;;;;;;5077237;28;20511;-59
2020/12/01 12:50:36;;;;;;;9.73;8.83;;;6.00;99.90;;;;;;5077623;28;20165;-59
2020/12/01 12:53:01;;;;;;;9.77;8.77;;;5.90;99.90;;;;;;5077670;28;20177;-58
2020/12/01 12:55:27;;;;;;;11.10;9.80;;;5.90;99.90;;;;;;5077947;28;20272;-59
2020/12/01 12:57:53;;;;;;;10.90;9.70;;;5.80;99.90;;;;;;5078034;28;20214;-57
2020/12/01 13:00:19;;;;;;;15.27;12.40;;;5.70;99.90;;;;;;5079677;28;20173;-60
2020/12/01 13:02:47;;;;;;;11.20;9.70;;;5.80;99.90;;;;;;5081145;28;20537;-57
2020/12/01 13:05:13;;;;;;;11.27;9.67;;;5.90;99.90;;;;;;5081739;28;20213;-57
2020/12/01 13:07:39;;;;;;;12.40;11.07;;;6.00;99.90;;;;;;5081343;28;20392;-57
2020/12/01 13:10:04;;;;;;;12.60;11.20;;;6.00;99.90;;;;;;5079253;28;20416;-55
2020/12/01 13:12:30;;;;;;;10.40;9.30;;;6.00;99.90;;;;;;5081768;28;20560;-58
2020/12/01 13:14:55;;;;;;;10.90;9.80;;;6.00;99.90;;;;;;5081615;28;20257;-57
2020/12/01 13:17:21;;;;;;;10.60;9.50;;;6.00;99.90;;;;;;5082636;28;20174;-57
2020/12/01 13:19:47;;;;;;;10.13;9.10;;;6.00;99.90;;;;;;5081228;28;20213;-56
2020/12/01 13:22:12;;;;;;;12.70;11.40;;;6.10;99.90;;;;;;5082028;28;20221;-56
2020/12/01 13:24:38;;;;;;;12.53;10.60;;;6.10;99.90;;;;;;5082109;28;20303;-58
2020/12/01 13:27:03;;;;;;;10.60;9.50;;;6.20;99.90;;;;;;5082453;28;20664;-59
2020/12/01 13:29:29;;;;;;;12.87;10.27;;;6.30;99.90;;;;;;5081609;28;20204;-57
2020/12/01 13:31:55;;;;;;;8.83;8.00;;;6.10;99.90;;;;;;5081679;28;20170;-58
2020/12/01 13:34:20;;;;;;;16.50;9.50;;;6.10;99.90;;;;;;5081319;28;20174;-58
2020/12/01 13:36:46;;;;;;;10.83;9.60;;;6.30;99.90;;;;;;5082111;28;20177;-57
2020/12/01 13:39:12;;;;;;;9.87;8.87;;;6.30;99.90;;;;;;5079591;28;20165;-57